VDSR Airport Information

Runway Information
Runway 05 Length 8366 ft width 148 ft
Elevation 51 ft Threshold 0 ft Heading 48
Runway 23 Length 8366 ft Width 148 ft
Elevation 60 ft Threshold 0 ft Heading 228
Airport Frequencies
Type APP Name APP Frequency 124.3 MHZ
Type ATIS Name ATIS Frequency 129.95 MHZ
Type TWR Name TWR Frequency 118.5 MHZ
Airport Navaids
Type NDB Name Siem Reap Frequency 441 KHZ
Type VOR-DME Name Siem Reap Frequency 113800 KHZ
Airport Weather Information & NOTAM
ADDS - METARS form results

(0137 UTC 23 April 2018)
 
METAR text: VDSR 230100Z 26004KT 230V290 9999 FEW017 29/25 Q1008
Conditions at: VDSR (SIEMREAP , KH) observed 0100 UTC 23 April 2018
Temperature: 29.0°C (84°F)
Dewpoint: 25.0°C (77°F) [RH = 79%]
Pressure (altimeter): 29.76 inches Hg (1008.0 mb)
Winds: from the W (260 degrees) at 5 MPH (4 knots; 2.1 m/s)
Visibility: 6 or more miles (10+ km)
Ceiling: at least 12,000 feet AGL
Clouds: few clouds at 1700 feet AGL
Weather: no significant weather observed at this time